sensor_id;sensor_type;location;lat;lon;timestamp;P1;durP1;ratioP1;P2;durP2;ratioP2
3427;SDS011;1727;42.624;23.406;2023-05-07T00:02:13;5.50;;;5.07;;
3427;SDS011;1727;42.624;23.406;2023-05-07T00:04:40;5.53;;;5.03;;
3427;SDS011;1727;42.624;23.406;2023-05-07T00:07:07;6.40;;;5.73;;
3427;SDS011;1727;42.624;23.406;2023-05-07T00:09:33;6.20;;;5.70;;
3427;SDS011;1727;42.624;23.406;2023-05-07T00:12:00;7.07;;;5.70;;
3427;SDS011;1727;42.624;23.406;2023-05-07T00:14:27;10.73;;;7.30;;
3427;SDS011;1727;42.624;23.406;2023-05-07T00:16:55;11.27;;;6.03;;
3427;SDS011;1727;42.624;23.406;2023-05-07T00:19:22;6.33;;;5.83;;
3427;SDS011;1727;42.624;23.406;2023-05-07T00:21:49;8.80;;;7.90;;
3427;SDS011;1727;42.624;23.406;2023-05-07T00:24:18;7.00;;;6.30;;
3427;SDS011;1727;42.624;23.406;2023-05-07T00:26:45;6.47;;;5.93;;
3427;SDS011;1727;42.624;23.406;2023-05-07T00:29:12;6.80;;;6.20;;
3427;SDS011;1727;42.624;23.406;2023-05-07T00:31:38;6.57;;;5.97;;
3427;SDS011;1727;42.624;23.406;2023-05-07T00:34:06;6.77;;;6.00;;
3427;SDS011;1727;42.624;23.406;2023-05-07T00:36:33;7.83;;;5.93;;
3427;SDS011;1727;42.624;23.406;2023-05-07T00:39:00;6.30;;;5.70;;
3427;SDS011;1727;42.624;23.406;2023-05-07T00:41:28;7.57;;;6.83;;
3427;SDS011;1727;42.624;23.406;2023-05-07T00:43:55;9.53;;;6.73;;
3427;SDS011;1727;42.624;23.406;2023-05-07T00:46:23;8.50;;;6.97;;
3427;SDS011;1727;42.624;23.406;2023-05-07T00:48:50;8.80;;;7.17;;
3427;SDS011;1727;42.624;23.406;2023-05-07T00:51:18;10.40;;;8.27;;
3427;SDS011;1727;42.624;23.406;2023-05-07T00:53:45;10.70;;;8.40;;
3427;SDS011;1727;42.624;23.406;2023-05-07T00:56:13;16.57;;;8.60;;
3427;SDS011;1727;42.624;23.406;2023-05-07T00:58:40;12.77;;;8.70;;
3427;SDS011;1727;42.624;23.406;2023-05-07T01:01:07;9.60;;;8.67;;
3427;SDS011;1727;42.624;23.406;2023-05-07T01:03:33;10.37;;;9.40;;
3427;SDS011;1727;42.624;23.406;2023-05-07T01:06:00;10.07;;;9.03;;
3427;SDS011;1727;42.624;23.406;2023-05-07T01:08:30;10.00;;;9.00;;
3427;SDS011;1727;42.624;23.406;2023-05-07T01:11:00;12.50;;;9.47;;
3427;SDS011;1727;42.624;23.406;2023-05-07T01:13:27;11.20;;;7.07;;
3427;SDS011;1727;42.624;23.406;2023-05-07T01:15:54;8.07;;;6.73;;
3427;SDS011;1727;42.624;23.406;2023-05-07T01:18:21;6.87;;;6.27;;
3427;SDS011;1727;42.624;23.406;2023-05-07T01:20:48;7.97;;;6.67;;
3427;SDS011;1727;42.624;23.406;2023-05-07T01:23:16;8.33;;;7.20;;
3427;SDS011;1727;42.624;23.406;2023-05-07T01:25:50;8.87;;;7.97;;
3427;SDS011;1727;42.624;23.406;2023-05-07T01:28:18;11.77;;;6.50;;
3427;SDS011;1727;42.624;23.406;2023-05-07T01:30:45;12.70;;;8.50;;
3427;SDS011;1727;42.624;23.406;2023-05-07T01:33:27;12.30;;;8.93;;
3427;SDS011;1727;42.624;23.406;2023-05-07T01:35:57;10.03;;;7.60;;
3427;SDS011;1727;42.624;23.406;2023-05-07T01:38:28;8.90;;;7.60;;
3427;SDS011;1727;42.624;23.406;2023-05-07T01:40:56;9.63;;;8.20;;
3427;SDS011;1727;42.624;23.406;2023-05-07T01:43:42;8.70;;;7.80;;
3427;SDS011;1727;42.624;23.406;2023-05-07T01:46:09;13.70;;;7.83;;
3427;SDS011;1727;42.624;23.406;2023-05-07T01:48:37;11.13;;;7.20;;
3427;SDS011;1727;42.624;23.406;2023-05-07T01:51:06;8.53;;;7.63;;
3427;SDS011;1727;42.624;23.406;2023-05-07T01:53:39;10.90;;;8.30;;
3427;SDS011;1727;42.624;23.406;2023-05-07T01:56:08;9.50;;;8.60;;
3427;SDS011;1727;42.624;23.406;2023-05-07T01:58:35;8.90;;;7.67;;
3427;SDS011;1727;42.624;23.406;2023-05-07T02:01:01;10.20;;;9.20;;
3427;SDS011;1727;42.624;23.406;2023-05-07T02:03:28;14.30;;;9.67;;
3427;SDS011;1727;42.624;23.406;2023-05-07T02:05:55;10.80;;;9.77;;
3427;SDS011;1727;42.624;23.406;2023-05-07T02:08:22;11.60;;;9.77;;
3427;SDS011;1727;42.624;23.406;2023-05-07T02:20:55;12.47;;;11.17;;
3427;SDS011;1727;42.624;23.406;2023-05-07T02:23:21;14.10;;;9.63;;
3427;SDS011;1727;42.624;23.406;2023-05-07T02:25:48;13.53;;;10.80;;
3427;SDS011;1727;42.624;23.406;2023-05-07T02:28:15;11.77;;;9.10;;
3427;SDS011;1727;42.624;23.406;2023-05-07T02:30:42;11.13;;;9.10;;
3427;SDS011;1727;42.624;23.406;2023-05-07T02:33:09;12.63;;;8.67;;
3427;SDS011;1727;42.624;23.406;2023-05-07T02:35:37;13.20;;;8.80;;
3427;SDS011;1727;42.624;23.406;2023-05-07T02:38:05;10.87;;;9.50;;
3427;SDS011;1727;42.624;23.406;2023-05-07T02:40:32;11.20;;;10.10;;
3427;SDS011;1727;42.624;23.406;2023-05-07T02:43:03;10.90;;;9.60;;
3427;SDS011;1727;42.624;23.406;2023-05-07T02:45:30;11.13;;;9.50;;
3427;SDS011;1727;42.624;23.406;2023-05-07T02:47:57;9.57;;;8.73;;
3427;SDS011;1727;42.624;23.406;2023-05-07T02:50:24;13.17;;;10.70;;
3427;SDS011;1727;42.624;23.406;2023-05-07T02:52:52;12.33;;;10.63;;
3427;SDS011;1727;42.624;23.406;2023-05-07T02:55:20;11.37;;;10.27;;
3427;SDS011;1727;42.624;23.406;2023-05-07T02:57:47;11.83;;;10.63;;
3427;SDS011;1727;42.624;23.406;2023-05-07T03:00:14;13.33;;;11.50;;
3427;SDS011;1727;42.624;23.406;2023-05-07T03:02:42;14.40;;;12.43;;
3427;SDS011;1727;42.624;23.406;2023-05-07T03:05:09;13.73;;;12.00;;
3427;SDS011;1727;42.624;23.406;2023-05-07T03:07:37;15.60;;;11.40;;
3427;SDS011;1727;42.624;23.406;2023-05-07T03:10:04;13.63;;;12.13;;
3427;SDS011;1727;42.624;23.406;2023-05-07T03:12:32;16.13;;;12.37;;
3427;SDS011;1727;42.624;23.406;2023-05-07T03:14:59;13.23;;;11.30;;
3427;SDS011;1727;42.624;23.406;2023-05-07T03:17:26;16.87;;;12.90;;
3427;SDS011;1727;42.624;23.406;2023-05-07T03:19:53;15.93;;;11.67;;
3427;SDS011;1727;42.624;23.406;2023-05-07T03:22:19;15.50;;;12.30;;
3427;SDS011;1727;42.624;23.406;2023-05-07T03:51:47;14.87;;;13.20;;
3427;SDS011;1727;42.624;23.406;2023-05-07T03:54:13;15.17;;;12.40;;
3427;SDS011;1727;42.624;23.406;2023-05-07T03:56:40;16.17;;;12.77;;
3427;SDS011;1727;42.624;23.406;2023-05-07T03:59:07;17.83;;;13.03;;
3427;SDS011;1727;42.624;23.406;2023-05-07T04:01:52;14.13;;;12.63;;
3427;SDS011;1727;42.624;23.406;2023-05-07T04:04:19;18.10;;;12.10;;
3427;SDS011;1727;42.624;23.406;2023-05-07T04:06:47;13.50;;;11.90;;
3427;SDS011;1727;42.624;23.406;2023-05-07T04:09:14;17.00;;;12.30;;
3427;SDS011;1727;42.624;23.406;2023-05-07T04:11:41;12.80;;;11.33;;
3427;SDS011;1727;42.624;23.406;2023-05-07T04:14:08;12.00;;;10.70;;
3427;SDS011;1727;42.624;23.406;2023-05-07T04:16:34;12.67;;;11.37;;
3427;SDS011;1727;42.624;23.406;2023-05-07T04:19:01;12.40;;;11.17;;
3427;SDS011;1727;42.624;23.406;2023-05-07T04:21:28;15.57;;;10.83;;
3427;SDS011;1727;42.624;23.406;2023-05-07T04:23:56;14.13;;;11.87;;
3427;SDS011;1727;42.624;23.406;2023-05-07T04:26:23;12.60;;;11.37;;
3427;SDS011;1727;42.624;23.406;2023-05-07T04:28:50;13.70;;;10.53;;
3427;SDS011;1727;42.624;23.406;2023-05-07T04:31:17;13.20;;;11.07;;
3427;SDS011;1727;42.624;23.406;2023-05-07T04:33:43;13.87;;;11.67;;
3427;SDS011;1727;42.624;23.406;2023-05-07T04:36:10;14.33;;;11.13;;
3427;SDS011;1727;42.624;23.406;2023-05-07T04:38:37;12.30;;;11.10;;
3427;SDS011;1727;42.624;23.406;2023-05-07T04:41:05;13.93;;;11.90;;
3427;SDS011;1727;42.624;23.406;2023-05-07T04:43:32;14.00;;;11.60;;
3427;SDS011;1727;42.624;23.406;2023-05-07T04:45:59;11.97;;;10.70;;
3427;SDS011;1727;42.624;23.406;2023-05-07T04:48:26;13.33;;;11.30;;
3427;SDS011;1727;42.624;23.406;2023-05-07T04:50:54;12.83;;;11.23;;
3427;SDS011;1727;42.624;23.406;2023-05-07T04:53:20;12.20;;;10.90;;
3427;SDS011;1727;42.624;23.406;2023-05-07T04:55:47;12.20;;;10.37;;
3427;SDS011;1727;42.624;23.406;2023-05-07T04:58:15;12.00;;;10.63;;
3427;SDS011;1727;42.624;23.406;2023-05-07T05:00:42;13.90;;;12.50;;
3427;SDS011;1727;42.624;23.406;2023-05-07T05:03:09;13.70;;;11.10;;
3427;SDS011;1727;42.624;23.406;2023-05-07T05:05:36;11.77;;;10.57;;
3427;SDS011;1727;42.624;23.406;2023-05-07T05:08:03;11.80;;;10.00;;
3427;SDS011;1727;42.624;23.406;2023-05-07T05:10:30;14.83;;;11.40;;
3427;SDS011;1727;42.624;23.406;2023-05-07T05:12:56;11.50;;;10.43;;
3427;SDS011;1727;42.624;23.406;2023-05-07T05:15:25;13.00;;;11.70;;
3427;SDS011;1727;42.624;23.406;2023-05-07T05:17:51;12.13;;;10.70;;
3427;SDS011;1727;42.624;23.406;2023-05-07T05:20:18;13.63;;;10.87;;
3427;SDS011;1727;42.624;23.406;2023-05-07T05:22:45;15.20;;;11.67;;
3427;SDS011;1727;42.624;23.406;2023-05-07T05:25:11;14.90;;;10.60;;
3427;SDS011;1727;42.624;23.406;2023-05-07T05:27:38;12.23;;;9.60;;
3427;SDS011;1727;42.624;23.406;2023-05-07T05:30:06;15.23;;;11.10;;
3427;SDS011;1727;42.624;23.406;2023-05-07T05:35:56;15.00;;;10.83;;
3427;SDS011;1727;42.624;23.406;2023-05-07T05:38:23;13.50;;;11.00;;
3427;SDS011;1727;42.624;23.406;2023-05-07T05:40:49;14.20;;;11.40;;
3427;SDS011;1727;42.624;23.406;2023-05-07T05:43:16;12.10;;;10.90;;
3427;SDS011;1727;42.624;23.406;2023-05-07T05:45:43;15.70;;;10.70;;
3427;SDS011;1727;42.624;23.406;2023-05-07T05:48:15;12.03;;;10.87;;
3427;SDS011;1727;42.624;23.406;2023-05-07T05:50:42;16.80;;;11.03;;
3427;SDS011;1727;42.624;23.406;2023-05-07T05:53:10;11.57;;;9.63;;
3427;SDS011;1727;42.624;23.406;2023-05-07T05:55:37;10.73;;;9.63;;
3427;SDS011;1727;42.624;23.406;2023-05-07T05:58:04;12.40;;;10.20;;
3427;SDS011;1727;42.624;23.406;2023-05-07T06:00:31;12.60;;;9.40;;
3427;SDS011;1727;42.624;23.406;2023-05-07T06:02:58;11.60;;;10.20;;
3427;SDS011;1727;42.624;23.406;2023-05-07T06:05:24;12.83;;;11.33;;
3427;SDS011;1727;42.624;23.406;2023-05-07T06:07:51;13.50;;;11.80;;
3427;SDS011;1727;42.624;23.406;2023-05-07T06:10:19;12.13;;;10.07;;
3427;SDS011;1727;42.624;23.406;2023-05-07T06:12:46;12.37;;;11.03;;
3427;SDS011;1727;42.624;23.406;2023-05-07T06:15:13;10.87;;;9.43;;
3427;SDS011;1727;42.624;23.406;2023-05-07T06:17:40;12.53;;;10.43;;
3427;SDS011;1727;42.624;23.406;2023-05-07T06:20:07;10.63;;;9.20;;
3427;SDS011;1727;42.624;23.406;2023-05-07T06:22:34;12.63;;;9.27;;
3427;SDS011;1727;42.624;23.406;2023-05-07T06:25:01;10.57;;;9.50;;
3427;SDS011;1727;42.624;23.406;2023-05-07T06:27:29;11.13;;;9.90;;
3427;SDS011;1727;42.624;23.406;2023-05-07T06:29:56;11.73;;;10.53;;
3427;SDS011;1727;42.624;23.406;2023-05-07T06:32:22;10.90;;;9.40;;
3427;SDS011;1727;42.624;23.406;2023-05-07T06:34:49;12.07;;;9.70;;
3427;SDS011;1727;42.624;23.406;2023-05-07T06:37:22;10.97;;;9.87;;
3427;SDS011;1727;42.624;23.406;2023-05-07T06:39:49;11.17;;;9.73;;
3427;SDS011;1727;42.624;23.406;2023-05-07T06:42:16;11.27;;;9.80;;
3427;SDS011;1727;42.624;23.406;2023-05-07T06:44:44;11.40;;;9.33;;
3427;SDS011;1727;42.624;23.406;2023-05-07T06:47:10;11.90;;;9.60;;
3427;SDS011;1727;42.624;23.406;2023-05-07T06:49:37;11.67;;;10.30;;
3427;SDS011;1727;42.624;23.406;2023-05-07T06:52:04;13.73;;;11.10;;
3427;SDS011;1727;42.624;23.406;2023-05-07T06:54:31;15.97;;;9.87;;
3427;SDS011;1727;42.624;23.406;2023-05-07T06:56:58;14.17;;;8.97;;
3427;SDS011;1727;42.624;23.406;2023-05-07T06:59:24;9.77;;;8.77;;
3427;SDS011;1727;42.624;23.406;2023-05-07T07:01:52;11.43;;;7.77;;
3427;SDS011;1727;42.624;23.406;2023-05-07T07:04:19;11.90;;;10.10;;
3427;SDS011;1727;42.624;23.406;2023-05-07T07:06:47;9.27;;;8.43;;
3427;SDS011;1727;42.624;23.406;2023-05-07T07:09:14;11.10;;;9.43;;
3427;SDS011;1727;42.624;23.406;2023-05-07T07:11:43;9.80;;;8.87;;
3427;SDS011;1727;42.624;23.406;2023-05-07T07:14:10;11.73;;;8.40;;
3427;SDS011;1727;42.624;23.406;2023-05-07T07:16:38;11.10;;;8.73;;
3427;SDS011;1727;42.624;23.406;2023-05-07T07:19:06;9.63;;;8.30;;
3427;SDS011;1727;42.624;23.406;2023-05-07T07:21:33;9.43;;;8.43;;
3427;SDS011;1727;42.624;23.406;2023-05-07T07:23:59;10.67;;;8.33;;
3427;SDS011;1727;42.624;23.406;2023-05-07T07:26:26;14.90;;;10.40;;
3427;SDS011;1727;42.624;23.406;2023-05-07T07:28:53;9.37;;;8.47;;
3427;SDS011;1727;42.624;23.406;2023-05-07T07:31:20;9.43;;;7.83;;
3427;SDS011;1727;42.624;23.406;2023-05-07T07:33:46;9.90;;;8.07;;
3427;SDS011;1727;42.624;23.406;2023-05-07T07:36:19;8.20;;;7.43;;
3427;SDS011;1727;42.624;23.406;2023-05-07T07:38:48;12.70;;;9.37;;
3427;SDS011;1727;42.624;23.406;2023-05-07T07:41:14;9.47;;;8.47;;
3427;SDS011;1727;42.624;23.406;2023-05-07T07:43:41;9.37;;;8.43;;
3427;SDS011;1727;42.624;23.406;2023-05-07T07:46:08;8.90;;;7.90;;
3427;SDS011;1727;42.624;23.406;2023-05-07T07:48:35;11.60;;;9.27;;
3427;SDS011;1727;42.624;23.406;2023-05-07T07:51:01;10.60;;;9.40;;
3427;SDS011;1727;42.624;23.406;2023-05-07T07:53:30;8.10;;;7.40;;
3427;SDS011;1727;42.624;23.406;2023-05-07T07:55:56;8.30;;;7.50;;
3427;SDS011;1727;42.624;23.406;2023-05-07T07:58:23;11.47;;;8.50;;
3427;SDS011;1727;42.624;23.406;2023-05-07T08:00:50;10.40;;;7.63;;
3427;SDS011;1727;42.624;23.406;2023-05-07T08:03:17;11.20;;;7.70;;
3427;SDS011;1727;42.624;23.406;2023-05-07T08:05:44;10.90;;;7.50;;
3427;SDS011;1727;42.624;23.406;2023-05-07T08:08:11;8.27;;;7.57;;
3427;SDS011;1727;42.624;23.406;2023-05-07T08:10:39;10.70;;;8.50;;
3427;SDS011;1727;42.624;23.406;2023-05-07T08:13:08;14.43;;;7.13;;
3427;SDS011;1727;42.624;23.406;2023-05-07T08:15:35;11.50;;;8.20;;
3427;SDS011;1727;42.624;23.406;2023-05-07T08:18:02;9.00;;;8.10;;
3427;SDS011;1727;42.624;23.406;2023-05-07T08:20:29;9.93;;;8.47;;
3427;SDS011;1727;42.624;23.406;2023-05-07T08:22:56;9.77;;;7.87;;
3427;SDS011;1727;42.624;23.406;2023-05-07T08:25:23;11.70;;;8.83;;
3427;SDS011;1727;42.624;23.406;2023-05-07T08:27:51;9.33;;;8.43;;
3427;SDS011;1727;42.624;23.406;2023-05-07T08:30:18;9.50;;;8.43;;
3427;SDS011;1727;42.624;23.406;2023-05-07T08:32:44;16.30;;;9.37;;
3427;SDS011;1727;42.624;23.406;2023-05-07T08:35:13;13.37;;;9.50;;
3427;SDS011;1727;42.624;23.406;2023-05-07T08:37:40;10.60;;;8.83;;
3427;SDS011;1727;42.624;23.406;2023-05-07T08:40:07;11.30;;;10.30;;
3427;SDS011;1727;42.624;23.406;2023-05-07T08:42:35;14.03;;;8.73;;
3427;SDS011;1727;42.624;23.406;2023-05-07T08:45:05;10.23;;;9.03;;
3427;SDS011;1727;42.624;23.406;2023-05-07T08:47:40;10.50;;;8.53;;
3427;SDS011;1727;42.624;23.406;2023-05-07T08:50:11;15.57;;;9.07;;
3427;SDS011;1727;42.624;23.406;2023-05-07T08:52:38;10.73;;;8.10;;
3427;SDS011;1727;42.624;23.406;2023-05-07T08:55:06;8.27;;;7.47;;
3427;SDS011;1727;42.624;23.406;2023-05-07T08:57:34;9.80;;;7.37;;
3427;SDS011;1727;42.624;23.406;2023-05-07T09:00:01;13.00;;;8.13;;
3427;SDS011;1727;42.624;23.406;2023-05-07T09:02:30;7.37;;;6.20;;
3427;SDS011;1727;42.624;23.406;2023-05-07T09:04:57;8.80;;;5.67;;
3427;SDS011;1727;42.624;23.406;2023-05-07T09:07:23;8.10;;;6.20;;
3427;SDS011;1727;42.624;23.406;2023-05-07T09:09:51;7.70;;;6.10;;
3427;SDS011;1727;42.624;23.406;2023-05-07T09:12:18;8.83;;;6.23;;
3427;SDS011;1727;42.624;23.406;2023-05-07T09:14:45;9.40;;;6.40;;
3427;SDS011;1727;42.624;23.406;2023-05-07T09:17:12;8.67;;;7.07;;
3427;SDS011;1727;42.624;23.406;2023-05-07T09:19:40;7.13;;;6.40;;
3427;SDS011;1727;42.624;23.406;2023-05-07T09:22:07;7.60;;;6.10;;
3427;SDS011;1727;42.624;23.406;2023-05-07T09:24:34;7.60;;;6.47;;
3427;SDS011;1727;42.624;23.406;2023-05-07T09:27:03;11.00;;;6.10;;
3427;SDS011;1727;42.624;23.406;2023-05-07T09:29:30;7.43;;;6.40;;
3427;SDS011;1727;42.624;23.406;2023-05-07T09:32:00;7.93;;;6.63;;
3427;SDS011;1727;42.624;23.406;2023-05-07T09:34:28;7.17;;;5.70;;
3427;SDS011;1727;42.624;23.406;2023-05-07T09:36:56;8.03;;;5.93;;
3427;SDS011;1727;42.624;23.406;2023-05-07T09:39:24;7.23;;;5.67;;
3427;SDS011;1727;42.624;23.406;2023-05-07T09:41:51;6.40;;;5.90;;
3427;SDS011;1727;42.624;23.406;2023-05-07T09:44:20;6.60;;;5.40;;
3427;SDS011;1727;42.624;23.406;2023-05-07T09:46:49;6.10;;;5.50;;
3427;SDS011;1727;42.624;23.406;2023-05-07T09:49:22;6.73;;;5.57;;
3427;SDS011;1727;42.624;23.406;2023-05-07T09:51:50;5.60;;;5.10;;
3427;SDS011;1727;42.624;23.406;2023-05-07T09:54:19;6.20;;;5.60;;
3427;SDS011;1727;42.624;23.406;2023-05-07T09:56:46;13.90;;;5.80;;
3427;SDS011;1727;42.624;23.406;2023-05-07T09:59:15;6.40;;;5.07;;
3427;SDS011;1727;42.624;23.406;2023-05-07T10:01:43;6.57;;;5.97;;
3427;SDS011;1727;42.624;23.406;2023-05-07T10:04:10;7.37;;;5.03;;
3427;SDS011;1727;42.624;23.406;2023-05-07T10:06:38;5.50;;;5.00;;
3427;SDS011;1727;42.624;23.406;2023-05-07T10:09:05;8.13;;;5.17;;
3427;SDS011;1727;42.624;23.406;2023-05-07T10:25:00;7.50;;;4.57;;
3427;SDS011;1727;42.624;23.406;2023-05-07T10:27:28;5.77;;;4.50;;
3427;SDS011;1727;42.624;23.406;2023-05-07T10:29:58;5.10;;;4.60;;
3427;SDS011;1727;42.624;23.406;2023-05-07T10:32:35;4.40;;;4.00;;
3427;SDS011;1727;42.624;23.406;2023-05-07T10:35:15;10.03;;;4.47;;
3427;SDS011;1727;42.624;23.406;2023-05-07T10:37:44;5.40;;;4.90;;
3427;SDS011;1727;42.624;23.406;2023-05-07T10:40:14;5.40;;;4.97;;
3427;SDS011;1727;42.624;23.406;2023-05-07T10:42:52;8.37;;;6.10;;
3427;SDS011;1727;42.624;23.406;2023-05-07T10:45:21;7.43;;;5.40;;
3427;SDS011;1727;42.624;23.406;2023-05-07T10:48:07;5.20;;;4.80;;
3427;SDS011;1727;42.624;23.406;2023-05-07T10:50:38;6.60;;;5.20;;
3427;SDS011;1727;42.624;23.406;2023-05-07T10:53:24;7.30;;;5.17;;
3427;SDS011;1727;42.624;23.406;2023-05-07T10:58:54;9.03;;;5.67;;
3427;SDS011;1727;42.624;23.406;2023-05-07T11:05:18;6.50;;;6.00;;
3427;SDS011;1727;42.624;23.406;2023-05-07T11:07:56;5.87;;;5.27;;
3427;SDS011;1727;42.624;23.406;2023-05-07T11:10:53;6.70;;;6.17;;
3427;SDS011;1727;42.624;23.406;2023-05-07T11:19:52;8.40;;;6.77;;
3427;SDS011;1727;42.624;23.406;2023-05-07T11:22:36;6.53;;;5.70;;
3427;SDS011;1727;42.624;23.406;2023-05-07T11:25:05;7.63;;;6.40;;
3427;SDS011;1727;42.624;23.406;2023-05-07T11:27:32;6.57;;;5.97;;
3427;SDS011;1727;42.624;23.406;2023-05-07T11:29:59;7.30;;;5.70;;
3427;SDS011;1727;42.624;23.406;2023-05-07T11:32:28;7.60;;;6.80;;
3427;SDS011;1727;42.624;23.406;2023-05-07T11:34:56;10.90;;;6.23;;
3427;SDS011;1727;42.624;23.406;2023-05-07T11:37:24;6.67;;;6.03;;
3427;SDS011;1727;42.624;23.406;2023-05-07T11:50:03;17.03;;;9.30;;
3427;SDS011;1727;42.624;23.406;2023-05-07T11:52:32;7.37;;;6.47;;
3427;SDS011;1727;42.624;23.406;2023-05-07T11:55:02;7.83;;;7.03;;
3427;SDS011;1727;42.624;23.406;2023-05-07T11:57:42;6.57;;;5.97;;
3427;SDS011;1727;42.624;23.406;2023-05-07T12:00:09;6.10;;;5.70;;
3427;SDS011;1727;42.624;23.406;2023-05-07T12:02:37;6.43;;;5.90;;
3427;SDS011;1727;42.624;23.406;2023-05-07T12:05:05;7.30;;;5.70;;
3427;SDS011;1727;42.624;23.406;2023-05-07T12:07:33;7.60;;;6.80;;
3427;SDS011;1727;42.624;23.406;2023-05-07T12:10:03;7.27;;;6.57;;
3427;SDS011;1727;42.624;23.406;2023-05-07T12:12:31;8.33;;;6.10;;
3427;SDS011;1727;42.624;23.406;2023-05-07T12:15:04;7.00;;;6.30;;
3427;SDS011;1727;42.624;23.406;2023-05-07T12:17:31;10.93;;;6.30;;
3427;SDS011;1727;42.624;23.406;2023-05-07T12:19:58;7.07;;;6.47;;
3427;SDS011;1727;42.624;23.406;2023-05-07T12:22:27;7.77;;;6.07;;
3427;SDS011;1727;42.624;23.406;2023-05-07T12:24:56;9.43;;;6.73;;
3427;SDS011;1727;42.624;23.406;2023-05-07T12:34:07;9.30;;;7.13;;
3427;SDS011;1727;42.624;23.406;2023-05-07T12:36:37;15.70;;;6.07;;
3427;SDS011;1727;42.624;23.406;2023-05-07T12:39:05;8.03;;;6.93;;
3427;SDS011;1727;42.624;23.406;2023-05-07T12:41:35;7.97;;;5.90;;
3427;SDS011;1727;42.624;23.406;2023-05-07T12:44:18;6.70;;;6.10;;
3427;SDS011;1727;42.624;23.406;2023-05-07T12:46:46;6.93;;;6.33;;
3427;SDS011;1727;42.624;23.406;2023-05-07T12:49:13;9.17;;;6.00;;
3427;SDS011;1727;42.624;23.406;2023-05-07T12:51:40;7.33;;;6.63;;
3427;SDS011;1727;42.624;23.406;2023-05-07T12:54:08;10.43;;;6.37;;
3427;SDS011;1727;42.624;23.406;2023-05-07T12:56:35;6.90;;;6.20;;
3427;SDS011;1727;42.624;23.406;2023-05-07T12:59:02;6.33;;;5.77;;
3427;SDS011;1727;42.624;23.406;2023-05-07T13:01:29;6.77;;;6.27;;
3427;SDS011;1727;42.624;23.406;2023-05-07T13:04:00;6.73;;;6.10;;
3427;SDS011;1727;42.624;23.406;2023-05-07T13:13:25;5.80;;;5.30;;
3427;SDS011;1727;42.624;23.406;2023-05-07T13:15:52;10.23;;;5.40;;
3427;SDS011;1727;42.624;23.406;2023-05-07T13:18:19;6.50;;;5.90;;
3427;SDS011;1727;42.624;23.406;2023-05-07T13:20:46;6.30;;;5.70;;
3427;SDS011;1727;42.624;23.406;2023-05-07T13:23:12;5.93;;;5.30;;
3427;SDS011;1727;42.624;23.406;2023-05-07T13:25:39;5.77;;;5.30;;
3427;SDS011;1727;42.624;23.406;2023-05-07T13:28:06;12.80;;;6.10;;
3427;SDS011;1727;42.624;23.406;2023-05-07T13:30:34;6.60;;;5.77;;
3427;SDS011;1727;42.624;23.406;2023-05-07T13:33:01;7.93;;;5.20;;
3427;SDS011;1727;42.624;23.406;2023-05-07T13:35:28;5.07;;;4.43;;
3427;SDS011;1727;42.624;23.406;2023-05-07T13:37:55;7.43;;;5.73;;
3427;SDS011;1727;42.624;23.406;2023-05-07T13:40:21;6.83;;;4.60;;
3427;SDS011;1727;42.624;23.406;2023-05-07T13:42:48;6.03;;;5.30;;
3427;SDS011;1727;42.624;23.406;2023-05-07T13:45:16;6.27;;;4.43;;
3427;SDS011;1727;42.624;23.406;2023-05-07T13:47:44;5.20;;;4.70;;
3427;SDS011;1727;42.624;23.406;2023-05-07T13:50:12;4.60;;;4.30;;
3427;SDS011;1727;42.624;23.406;2023-05-07T13:52:40;7.53;;;4.97;;
3427;SDS011;1727;42.624;23.406;2023-05-07T13:55:11;5.67;;;5.17;;
3427;SDS011;1727;42.624;23.406;2023-05-07T13:57:37;6.20;;;4.70;;
3427;SDS011;1727;42.624;23.406;2023-05-07T14:00:05;5.43;;;4.53;;
3427;SDS011;1727;42.624;23.406;2023-05-07T14:02:33;5.57;;;5.07;;
3427;SDS011;1727;42.624;23.406;2023-05-07T14:05:01;5.70;;;4.93;;
3427;SDS011;1727;42.624;23.406;2023-05-07T14:07:27;6.57;;;5.50;;
3427;SDS011;1727;42.624;23.406;2023-05-07T14:09:54;5.57;;;5.03;;
3427;SDS011;1727;42.624;23.406;2023-05-07T14:12:21;12.23;;;4.60;;
3427;SDS011;1727;42.624;23.406;2023-05-07T14:14:48;4.90;;;4.50;;
3427;SDS011;1727;42.624;23.406;2023-05-07T14:17:16;4.43;;;3.97;;
3427;SDS011;1727;42.624;23.406;2023-05-07T14:19:43;6.23;;;4.70;;
3427;SDS011;1727;42.624;23.406;2023-05-07T14:22:12;4.67;;;4.10;;
3427;SDS011;1727;42.624;23.406;2023-05-07T14:24:39;6.83;;;5.00;;
3427;SDS011;1727;42.624;23.406;2023-05-07T14:36:45;5.00;;;4.60;;
3427;SDS011;1727;42.624;23.406;2023-05-07T14:39:13;4.73;;;4.20;;
3427;SDS011;1727;42.624;23.406;2023-05-07T14:41:40;9.23;;;4.53;;
3427;SDS011;1727;42.624;23.406;2023-05-07T14:44:06;5.43;;;4.93;;
3427;SDS011;1727;42.624;23.406;2023-05-07T14:46:33;4.50;;;4.10;;
3427;SDS011;1727;42.624;23.406;2023-05-07T14:49:01;6.30;;;4.73;;
3427;SDS011;1727;42.624;23.406;2023-05-07T14:51:28;4.60;;;4.20;;
3427;SDS011;1727;42.624;23.406;2023-05-07T14:53:55;6.23;;;4.70;;
3427;SDS011;1727;42.624;23.406;2023-05-07T14:56:24;4.77;;;4.37;;
3427;SDS011;1727;42.624;23.406;2023-05-07T14:58:50;5.53;;;5.00;;
3427;SDS011;1727;42.624;23.406;2023-05-07T15:01:17;4.43;;;4.03;;
3427;SDS011;1727;42.624;23.406;2023-05-07T15:03:44;5.17;;;4.67;;
3427;SDS011;1727;42.624;23.406;2023-05-07T15:06:11;4.20;;;3.83;;
3427;SDS011;1727;42.624;23.406;2023-05-07T15:08:38;5.93;;;5.33;;
3427;SDS011;1727;42.624;23.406;2023-05-07T15:11:04;7.43;;;4.00;;
3427;SDS011;1727;42.624;23.406;2023-05-07T15:13:32;7.70;;;6.00;;
3427;SDS011;1727;42.624;23.406;2023-05-07T15:15:59;6.67;;;6.07;;
3427;SDS011;1727;42.624;23.406;2023-05-07T15:18:26;5.97;;;4.30;;
3427;SDS011;1727;42.624;23.406;2023-05-07T15:20:53;5.20;;;4.70;;
3427;SDS011;1727;42.624;23.406;2023-05-07T15:23:20;5.50;;;4.90;;
3427;SDS011;1727;42.624;23.406;2023-05-07T15:25:47;4.77;;;4.20;;
3427;SDS011;1727;42.624;23.406;2023-05-07T15:28:13;4.50;;;3.90;;
3427;SDS011;1727;42.624;23.406;2023-05-07T15:30:42;6.40;;;4.07;;
3427;SDS011;1727;42.624;23.406;2023-05-07T15:33:08;4.67;;;4.37;;
3427;SDS011;1727;42.624;23.406;2023-05-07T15:35:36;5.07;;;4.57;;
3427;SDS011;1727;42.624;23.406;2023-05-07T15:38:03;5.00;;;4.60;;
3427;SDS011;1727;42.624;23.406;2023-05-07T15:40:30;4.30;;;4.00;;
3427;SDS011;1727;42.624;23.406;2023-05-07T15:42:57;6.40;;;4.60;;
3427;SDS011;1727;42.624;23.406;2023-05-07T15:45:25;4.10;;;3.80;;
3427;SDS011;1727;42.624;23.406;2023-05-07T15:47:53;4.70;;;4.30;;
3427;SDS011;1727;42.624;23.406;2023-05-07T15:50:20;5.90;;;4.60;;
3427;SDS011;1727;42.624;23.406;2023-05-07T15:52:46;4.87;;;4.37;;
3427;SDS011;1727;42.624;23.406;2023-05-07T15:55:13;6.00;;;5.40;;
3427;SDS011;1727;42.624;23.406;2023-05-07T15:57:40;5.23;;;4.80;;
3427;SDS011;1727;42.624;23.406;2023-05-07T16:00:07;5.60;;;4.23;;
3427;SDS011;1727;42.624;23.406;2023-05-07T16:02:36;4.60;;;4.30;;
3427;SDS011;1727;42.624;23.406;2023-05-07T16:05:05;4.90;;;4.47;;
3427;SDS011;1727;42.624;23.406;2023-05-07T16:07:35;4.50;;;4.03;;
3427;SDS011;1727;42.624;23.406;2023-05-07T16:10:01;4.87;;;4.47;;
3427;SDS011;1727;42.624;23.406;2023-05-07T16:12:28;4.30;;;4.00;;
3427;SDS011;1727;42.624;23.406;2023-05-07T16:14:55;6.23;;;4.57;;
3427;SDS011;1727;42.624;23.406;2023-05-07T16:17:22;6.90;;;4.77;;
3427;SDS011;1727;42.624;23.406;2023-05-07T16:19:49;6.53;;;4.70;;
3427;SDS011;1727;42.624;23.406;2023-05-07T16:22:17;5.00;;;4.67;;
3427;SDS011;1727;42.624;23.406;2023-05-07T16:24:44;14.30;;;5.17;;
3427;SDS011;1727;42.624;23.406;2023-05-07T16:27:11;7.10;;;4.83;;
3427;SDS011;1727;42.624;23.406;2023-05-07T16:29:38;8.30;;;4.60;;
3427;SDS011;1727;42.624;23.406;2023-05-07T16:32:05;4.40;;;4.00;;
3427;SDS011;1727;42.624;23.406;2023-05-07T16:34:32;6.63;;;5.07;;
3427;SDS011;1727;42.624;23.406;2023-05-07T16:36:58;5.20;;;4.80;;
3427;SDS011;1727;42.624;23.406;2023-05-07T16:39:27;6.33;;;4.80;;